createdAt,value
2019-04-03T00:00:16.740Z,61.96
2019-04-03T00:01:22.481Z,62.15
2019-04-03T00:02:26.217Z,62.44
2019-04-03T00:03:29.862Z,63.06
2019-04-03T00:04:34.332Z,63.62
2019-04-03T00:05:38.520Z,63.62
2019-04-03T00:06:42.194Z,63.73
2019-04-03T00:07:45.830Z,63.52
2019-04-03T00:08:49.503Z,65.34
2019-04-03T00:09:53.187Z,65.34
2019-04-03T00:10:56.840Z,65.62
2019-04-03T00:12:00.509Z,66.50
2019-04-03T00:13:04.155Z,66.50
2019-04-03T00:14:08.221Z,66.33
2019-04-03T00:15:13.660Z,66.33
2019-04-03T00:16:17.578Z,66.54
2019-04-03T00:17:21.264Z,66.80
2019-04-03T00:18:25.034Z,67.12
2019-04-03T00:19:28.753Z,66.76
2019-04-03T00:20:32.388Z,66.83
2019-04-03T00:21:36.036Z,66.64
2019-04-03T00:22:39.711Z,66.64
2019-04-03T00:23:43.676Z,66.28
2019-04-03T00:24:47.404Z,66.05
2019-04-03T00:25:52.354Z,66.33
2019-04-03T00:26:56.517Z,66.33
2019-04-03T00:28:00.174Z,66.34
2019-04-03T00:29:03.929Z,66.34
2019-04-03T00:30:08.672Z,65.91
2019-04-03T00:31:12.333Z,65.25
2019-04-03T00:32:15.993Z,66.09
2019-04-03T00:33:19.677Z,65.81
2019-04-03T00:34:23.885Z,65.54
2019-04-03T00:35:27.701Z,65.48
2019-04-03T00:36:31.372Z,65.48
2019-04-03T00:37:35.040Z,65.54
2019-04-03T00:38:38.714Z,65.43
2019-04-03T00:39:42.372Z,65.29
2019-04-03T00:40:46.106Z,65.29
2019-04-03T00:41:49.726Z,66.62
2019-04-03T00:42:54.566Z,67.23
2019-04-03T00:43:58.591Z,67.23
2019-04-03T00:45:02.243Z,67.81
2019-04-03T00:46:05.935Z,68.43
2019-04-03T00:47:09.576Z,68.13
2019-04-03T00:48:13.216Z,68.13
2019-04-03T00:49:16.916Z,68.01
2019-04-03T00:50:20.586Z,67.69
2019-04-03T00:51:27.162Z,67.40
2019-04-03T00:52:30.032Z,67.40
2019-04-03T00:53:33.657Z,67.25
2019-04-03T00:54:37.264Z,67.25
2019-04-03T00:55:40.829Z,67.40
2019-04-03T00:56:44.498Z,67.33
2019-04-03T00:57:48.152Z,66.75
2019-04-03T00:58:51.769Z,66.72
2019-04-03T00:59:56.481Z,66.43
2019-04-03T01:01:00.687Z,66.43
2019-04-03T01:02:04.320Z,65.44
2019-04-03T01:03:07.986Z,66.08
2019-04-03T01:04:11.649Z,66.05
2019-04-03T01:05:15.690Z,66.05
2019-04-03T01:06:19.391Z,67.08
2019-04-03T01:07:23.428Z,67.70
2019-04-03T01:08:29.053Z,67.45
2019-04-03T01:09:32.506Z,67.17
2019-04-03T01:10:36.435Z,67.17
2019-04-03T01:11:40.090Z,66.75
2019-04-03T01:12:43.733Z,66.54
2019-04-03T01:13:47.395Z,66.25
2019-04-03T01:14:51.041Z,66.24
2019-04-03T01:15:54.720Z,66.15
2019-04-03T01:16:58.369Z,66.15
2019-04-03T01:18:04.629Z,65.92
2019-04-03T01:19:07.476Z,65.56
2019-04-03T01:20:11.430Z,65.56
2019-04-03T01:21:15.227Z,65.19
2019-04-03T01:22:18.772Z,63.74
2019-04-03T01:23:22.472Z,64.58
2019-04-03T01:24:26.065Z,65.17
2019-04-03T01:25:29.729Z,65.60
2019-04-03T01:26:33.419Z,65.37
2019-04-03T01:27:37.069Z,65.78
2019-04-03T01:28:41.822Z,66.25
2019-04-03T01:29:46.094Z,66.25
2019-04-03T01:30:49.724Z,66.14
2019-04-03T01:31:53.597Z,66.02
2019-04-03T01:32:57.251Z,65.64
2019-04-03T01:34:01.000Z,65.37
2019-04-03T01:35:05.439Z,65.33
2019-04-03T01:36:09.109Z,65.29
2019-04-03T01:37:12.809Z,65.11
2019-04-03T01:38:19.090Z,64.35
2019-04-03T01:39:21.816Z,63.48
2019-04-03T01:40:25.373Z,63.63
2019-04-03T01:41:29.125Z,63.18
2019-04-03T01:42:32.807Z,63.53
2019-04-03T01:43:36.474Z,63.69
2019-04-03T01:44:40.124Z,64.06
2019-04-03T01:45:43.786Z,64.06
2019-04-03T01:46:47.409Z,63.95
2019-04-03T01:47:51.365Z,64.17
2019-04-03T01:48:56.742Z,63.97
2019-04-03T01:50:00.746Z,63.97
2019-04-03T01:51:04.400Z,63.25
2019-04-03T01:52:08.174Z,63.09
2019-04-03T01:53:11.812Z,62.82
2019-04-03T01:54:15.485Z,62.84
2019-04-03T01:55:19.108Z,62.95
2019-04-03T01:56:22.742Z,63.17
2019-04-03T01:57:26.377Z,62.65
2019-04-03T01:58:30.063Z,63.26
2019-04-03T01:59:33.699Z,63.70
2019-04-03T02:00:38.161Z,64.17
2019-04-03T02:01:41.937Z,64.50
2019-04-03T02:02:45.655Z,64.52
2019-04-03T02:03:49.354Z,64.45
2019-04-03T02:04:53.026Z,64.43
2019-04-03T02:05:56.868Z,64.14
2019-04-03T02:07:00.871Z,64.02
2019-04-03T02:08:04.535Z,64.09
2019-04-03T02:09:10.201Z,64.07
2019-04-03T02:10:17.696Z,63.91
2019-04-03T02:11:21.919Z,63.79
2019-04-03T02:12:25.570Z,63.57
2019-04-03T02:13:29.241Z,62.77
2019-04-03T02:14:32.921Z,63.57
2019-04-03T02:15:36.558Z,64.03
2019-04-03T02:16:40.219Z,64.60
2019-04-03T02:17:43.862Z,64.52
2019-04-03T02:18:47.511Z,64.74
2019-04-03T02:19:51.194Z,64.60
2019-04-03T02:20:57.310Z,64.54
2019-04-03T02:22:00.306Z,64.31
2019-04-03T02:23:03.983Z,64.26
2019-04-03T02:24:07.652Z,64.40
2019-04-03T02:25:11.710Z,64.41
2019-04-03T02:26:15.379Z,64.49
2019-04-03T02:27:19.022Z,64.40
2019-04-03T02:28:22.671Z,63.10
2019-04-03T02:29:26.315Z,64.00
2019-04-03T02:30:30.017Z,64.54
2019-04-03T02:31:33.681Z,64.88
2019-04-03T02:32:37.320Z,65.06
2019-04-03T02:33:40.974Z,65.20
2019-04-03T02:34:45.262Z,65.21
2019-04-03T02:35:49.300Z,64.98
2019-04-03T02:36:52.941Z,64.41
2019-04-03T02:37:56.597Z,64.10
2019-04-03T02:39:00.241Z,63.85
2019-04-03T02:40:07.672Z,63.67
2019-04-03T02:41:11.426Z,63.70
2019-04-03T02:42:15.072Z,63.45
2019-04-03T02:43:18.741Z,62.44
2019-04-03T02:44:22.535Z,62.96
2019-04-03T02:45:26.212Z,63.00
2019-04-03T02:46:29.893Z,63.57
2019-04-03T02:47:34.637Z,64.06
2019-04-03T02:48:38.925Z,64.10
2019-04-03T02:49:43.759Z,64.39
2019-04-03T02:50:48.555Z,64.26
2019-04-03T02:51:53.770Z,64.51
2019-04-03T02:52:59.038Z,64.39
2019-04-03T02:54:03.246Z,64.42
2019-04-03T02:55:08.480Z,64.12
2019-04-03T02:56:13.520Z,63.77
2019-04-03T02:57:18.390Z,63.50
2019-04-03T02:58:22.994Z,63.41
2019-04-03T02:59:27.821Z,61.92
2019-04-03T03:00:33.293Z,62.57
2019-04-03T03:01:39.562Z,63.46
2019-04-03T03:02:45.149Z,63.43
2019-04-03T03:03:49.534Z,64.19
2019-04-03T03:04:54.564Z,64.33
2019-04-03T03:06:00.712Z,64.42
2019-04-03T03:07:05.458Z,64.31
2019-04-03T03:08:10.062Z,64.10
2019-04-03T03:09:14.525Z,63.85
2019-04-03T03:10:19.443Z,63.88
2019-04-03T03:11:25.143Z,63.60
2019-04-03T03:12:30.378Z,63.59
2019-04-03T03:13:35.542Z,63.30
2019-04-03T03:14:40.679Z,62.94
2019-04-03T03:15:45.354Z,63.77
2019-04-03T03:16:50.794Z,63.56
2019-04-03T03:17:56.304Z,64.00
2019-04-03T03:19:01.699Z,65.02
2019-04-03T03:20:08.110Z,65.20
2019-04-03T03:21:14.327Z,65.06
2019-04-03T03:22:19.225Z,64.90
2019-04-03T03:23:24.076Z,64.81
2019-04-03T03:24:30.849Z,64.79
2019-04-03T03:25:34.756Z,64.45
2019-04-03T03:26:38.825Z,64.30
2019-04-03T03:27:43.281Z,63.52
2019-04-03T03:28:48.251Z,64.40
2019-04-03T03:29:52.147Z,65.54
2019-04-03T03:31:02.097Z,65.62
2019-04-03T03:32:13.787Z,65.99
2019-04-03T03:33:28.772Z,66.32
2019-04-03T03:34:13.795Z,66.07
2019-04-03T03:35:26.567Z,65.76
2019-04-03T03:36:25.743Z,65.39
2019-04-03T03:37:32.984Z,64.98
2019-04-03T03:38:38.097Z,64.90
2019-04-03T03:39:43.567Z,64.89
2019-04-03T03:40:49.296Z,64.84
2019-04-03T03:41:56.004Z,64.77
2019-04-03T03:42:59.278Z,64.56
2019-04-03T03:44:03.183Z,63.84
2019-04-03T03:45:07.765Z,64.64
2019-04-03T03:46:11.576Z,65.13
2019-04-03T03:47:16.439Z,65.60
2019-04-03T03:48:20.123Z,65.81
2019-04-03T03:49:25.476Z,66.06
2019-04-03T03:50:31.546Z,66.40
2019-04-03T03:51:35.196Z,66.41
2019-04-03T03:52:39.304Z,66.23
2019-04-03T03:53:45.446Z,66.19
2019-04-03T03:54:51.149Z,65.90
2019-04-03T03:55:58.397Z,65.76
2019-04-03T03:57:04.247Z,65.54
2019-04-03T03:58:11.081Z,69.79
2019-04-03T03:59:16.211Z,70.71
2019-04-03T04:00:22.753Z,68.81
2019-04-03T04:01:24.364Z,67.45
2019-04-03T04:02:28.472Z,69.23
2019-04-03T04:03:32.681Z,71.21
2019-04-03T04:04:36.636Z,71.04
2019-04-03T04:05:40.857Z,69.87
2019-04-03T04:06:45.061Z,68.75
2019-04-03T04:07:48.844Z,67.86
2019-04-03T04:08:53.002Z,68.64
2019-04-03T04:09:58.843Z,68.73
2019-04-03T04:11:03.368Z,69.29
2019-04-03T04:12:07.539Z,68.93
2019-04-03T04:13:15.115Z,69.01
2019-04-03T04:14:21.087Z,69.54
2019-04-03T04:15:22.463Z,69.45
2019-04-03T04:16:27.135Z,69.48
2019-04-03T04:17:31.065Z,68.04
2019-04-03T04:18:35.980Z,67.51
2019-04-03T04:19:40.229Z,68.22
2019-04-03T04:20:44.018Z,67.83
2019-04-03T04:21:48.232Z,68.11
2019-04-03T04:22:52.894Z,67.58
2019-04-03T04:23:57.656Z,67.55
2019-04-03T04:25:03.505Z,67.27
2019-04-03T04:26:07.527Z,67.34
2019-04-03T04:27:11.170Z,67.68
2019-04-03T04:28:14.930Z,67.37
2019-04-03T04:29:18.699Z,67.72
2019-04-03T04:30:22.426Z,67.38
2019-04-03T04:31:26.501Z,67.42
2019-04-03T04:32:30.175Z,67.68
2019-04-03T04:33:33.935Z,67.38
2019-04-03T04:34:38.253Z,67.61
2019-04-03T04:35:41.995Z,67.76
2019-04-03T04:36:45.738Z,67.67
2019-04-03T04:37:49.336Z,68.08
2019-04-03T04:38:53.013Z,67.97
2019-04-03T04:39:57.922Z,67.89
2019-04-03T04:41:02.242Z,67.47
2019-04-03T04:42:05.901Z,67.74
2019-04-03T04:43:09.819Z,67.53
2019-04-03T04:44:14.758Z,67.20
2019-04-03T04:45:18.937Z,66.79
2019-04-03T04:46:22.536Z,67.03
2019-04-03T04:47:26.221Z,67.15
2019-04-03T04:48:29.892Z,66.11
2019-04-03T04:49:33.643Z,65.60
2019-04-03T04:50:37.317Z,65.83
2019-04-03T04:51:40.950Z,66.30
2019-04-03T04:52:44.785Z,66.45
2019-04-03T04:53:48.438Z,67.00
2019-04-03T04:54:52.100Z,66.79
2019-04-03T04:55:55.805Z,67.01
2019-04-03T04:56:59.464Z,67.11
2019-04-03T04:58:04.783Z,66.92
2019-04-03T04:59:08.594Z,66.77
2019-04-03T05:00:15.117Z,66.74
2019-04-03T05:01:18.513Z,66.84
2019-04-03T05:02:22.294Z,67.37
2019-04-03T05:03:26.322Z,67.59
2019-04-03T05:04:30.060Z,68.04
2019-04-03T05:05:33.707Z,68.26
2019-04-03T05:06:37.525Z,68.35
2019-04-03T05:07:41.179Z,68.31
2019-04-03T05:08:44.851Z,68.59
2019-04-03T05:09:49.507Z,68.56
2019-04-03T05:10:53.189Z,68.37
2019-04-03T05:11:56.855Z,68.01
2019-04-03T05:13:00.522Z,67.77
2019-04-03T05:14:04.618Z,67.57
2019-04-03T05:15:08.418Z,67.42
2019-04-03T05:16:12.067Z,66.75
2019-04-03T05:17:15.735Z,66.78
2019-04-03T05:18:20.063Z,67.34
2019-04-03T05:19:23.786Z,67.19
2019-04-03T05:20:28.991Z,68.18
2019-04-03T05:21:32.844Z,68.68
2019-04-03T05:22:38.235Z,68.39
2019-04-03T05:23:42.968Z,68.70
2019-04-03T05:24:46.906Z,68.05
2019-04-03T05:25:50.584Z,68.00
2019-04-03T05:26:54.251Z,67.62
2019-04-03T05:27:57.990Z,67.20
2019-04-03T05:29:02.968Z,67.75
2019-04-03T05:30:07.282Z,67.66
2019-04-03T05:31:10.982Z,67.49
2019-04-03T05:32:14.592Z,67.28
2019-04-03T05:33:18.309Z,66.48
2019-04-03T05:34:21.982Z,66.92
2019-04-03T05:35:25.658Z,67.41
2019-04-03T05:36:29.311Z,67.09
2019-04-03T05:37:33.657Z,66.53
2019-04-03T05:38:38.215Z,66.04
2019-04-03T05:39:43.092Z,65.60
2019-04-03T05:40:46.772Z,65.65
2019-04-03T05:41:50.673Z,65.71
2019-04-03T05:42:54.679Z,65.82
2019-04-03T05:43:58.314Z,65.09
2019-04-03T05:45:03.831Z,64.93
2019-04-03T05:46:07.356Z,64.07
2019-04-03T05:47:11.028Z,63.76
2019-04-03T05:48:17.680Z,63.73
2019-04-03T05:49:20.099Z,63.34
2019-04-03T05:50:24.353Z,62.98
2019-04-03T05:51:29.730Z,62.86
2019-04-03T05:52:35.118Z,62.55
2019-04-03T05:53:39.330Z,61.71
2019-04-03T05:54:44.591Z,61.26
2019-04-03T05:55:48.525Z,61.13
2019-04-03T05:56:52.298Z,60.43
2019-04-03T05:57:55.970Z,60.40
2019-04-03T05:59:02.249Z,60.17
2019-04-03T06:00:08.837Z,59.79
2019-04-03T06:01:12.492Z,59.59
2019-04-03T06:02:20.011Z,59.04
2019-04-03T06:03:36.748Z,58.69
2019-04-03T06:04:27.321Z,58.94
2019-04-03T06:05:31.018Z,58.58
2019-04-03T06:06:34.932Z,58.67
2019-04-03T06:07:38.491Z,58.97
2019-04-03T06:08:42.198Z,58.95
2019-04-03T06:09:45.800Z,58.10
2019-04-03T06:10:49.716Z,57.87
2019-04-03T06:11:53.445Z,60.26
2019-04-03T06:12:57.085Z,58.40
2019-04-03T06:14:00.748Z,57.33
2019-04-03T06:15:09.541Z,57.36
2019-04-03T06:16:12.714Z,57.34
2019-04-03T06:17:16.658Z,56.86
2019-04-03T06:18:20.350Z,56.62
2019-04-03T06:19:24.009Z,56.12
2019-04-03T06:20:27.676Z,55.72
2019-04-03T06:21:31.363Z,55.36
2019-04-03T06:22:34.993Z,55.69
2019-04-03T06:23:38.672Z,55.25
2019-04-03T06:24:42.417Z,55.21
2019-04-03T06:25:45.974Z,55.10
2019-04-03T06:26:49.643Z,54.71
2019-04-03T06:27:53.325Z,55.29
2019-04-03T06:28:56.954Z,55.33
2019-04-03T06:30:00.885Z,55.45
2019-04-03T06:31:05.648Z,55.22
2019-04-03T06:32:11.631Z,55.48
2019-04-03T06:33:15.401Z,55.99
2019-04-03T06:34:19.070Z,55.68
2019-04-03T06:35:22.766Z,55.52
2019-04-03T06:36:26.413Z,55.67
2019-04-03T06:37:30.073Z,55.87
2019-04-03T06:38:33.816Z,55.62
2019-04-03T06:39:37.459Z,55.02
2019-04-03T06:40:41.089Z,54.11
2019-04-03T06:41:44.765Z,54.23
2019-04-03T06:42:48.758Z,53.90
2019-04-03T06:43:54.033Z,53.93
2019-04-03T06:44:57.999Z,54.03
2019-04-03T06:46:01.573Z,53.77
2019-04-03T06:47:05.345Z,53.30
2019-04-03T06:48:09.035Z,52.89
2019-04-03T06:49:12.672Z,52.19
2019-04-03T06:50:17.503Z,52.08
2019-04-03T06:51:21.639Z,52.37
2019-04-03T06:52:25.509Z,52.27
2019-04-03T06:53:29.239Z,52.27
2019-04-03T06:54:33.025Z,52.12
2019-04-03T06:55:36.665Z,51.96
2019-04-03T06:56:41.224Z,52.04
2019-04-03T06:57:45.132Z,51.13
2019-04-03T06:58:48.851Z,50.93
2019-04-03T06:59:52.419Z,50.54
2019-04-03T07:00:56.242Z,50.41
2019-04-03T07:01:59.937Z,50.41
2019-04-03T07:03:04.155Z,50.15
2019-04-03T07:04:09.231Z,50.16
2019-04-03T07:05:13.084Z,50.05
2019-04-03T07:06:16.738Z,50.05
2019-04-03T07:07:32.038Z,50.54
2019-04-03T07:08:32.463Z,50.54
2019-04-03T07:09:36.123Z,50.29
2019-04-03T07:10:40.300Z,49.92
2019-04-03T07:11:44.093Z,49.79
2019-04-03T07:12:48.171Z,48.88
2019-04-03T07:13:53.639Z,48.73
2019-04-03T07:14:57.749Z,48.09
2019-04-03T07:16:02.869Z,48.09
2019-04-03T07:17:06.560Z,47.96
2019-04-03T07:18:10.415Z,47.97
2019-04-03T07:19:14.548Z,46.99
2019-04-03T07:20:20.077Z,46.95
2019-04-03T07:21:27.011Z,46.95
2019-04-03T07:22:29.048Z,46.80
2019-04-03T07:23:32.725Z,46.80
2019-04-03T07:24:36.339Z,47.08
2019-04-03T07:25:40.063Z,46.20
2019-04-03T07:26:43.843Z,44.77
2019-04-03T07:27:47.779Z,44.77
2019-04-03T07:28:51.590Z,44.46
2019-04-03T07:29:55.175Z,44.06
2019-04-03T07:30:58.855Z,43.80
2019-04-03T07:32:02.495Z,43.66
2019-04-03T07:33:06.385Z,44.44
2019-04-03T07:34:10.426Z,44.12
2019-04-03T07:35:14.337Z,43.84
2019-04-03T07:36:25.930Z,43.65
2019-04-03T07:37:30.428Z,43.21
2019-04-03T07:38:34.481Z,42.65
2019-04-03T07:39:38.368Z,42.68
2019-04-03T07:40:42.106Z,43.13
2019-04-03T07:41:45.842Z,43.80
2019-04-03T07:42:49.498Z,42.46
2019-04-03T07:43:53.116Z,41.51
2019-04-03T07:44:56.881Z,42.14
2019-04-03T07:46:03.132Z,42.14
2019-04-03T07:47:05.853Z,42.01
2019-04-03T07:48:09.541Z,41.35
2019-04-03T07:49:14.203Z,41.37
2019-04-03T07:50:18.493Z,41.29
2019-04-03T07:51:22.166Z,41.17
2019-04-03T07:52:25.945Z,41.40
2019-04-03T07:53:29.920Z,42.30
2019-04-03T07:54:33.602Z,42.39
2019-04-03T07:55:37.259Z,42.20
2019-04-03T07:56:40.994Z,41.28
2019-04-03T07:57:44.680Z,40.80
2019-04-03T07:58:48.488Z,40.39
2019-04-03T07:59:52.191Z,39.98
2019-04-03T08:00:56.496Z,40.37
2019-04-03T08:02:00.192Z,40.51
2019-04-03T08:03:03.851Z,40.72
2019-04-03T08:04:09.262Z,41.01
2019-04-03T08:05:12.988Z,39.43
2019-04-03T08:06:16.734Z,39.46
2019-04-03T08:07:20.728Z,38.65
2019-04-03T08:08:24.497Z,38.74
2019-04-03T08:09:30.494Z,39.38
2019-04-03T08:10:33.615Z,38.76
2019-04-03T08:11:37.582Z,38.28
2019-04-03T08:12:43.595Z,38.50
2019-04-03T08:13:47.696Z,37.95
2019-04-03T08:14:52.898Z,37.46
2019-04-03T08:15:56.661Z,37.23
2019-04-03T08:17:00.291Z,37.51
2019-04-03T08:18:03.968Z,38.42
2019-04-03T08:19:08.588Z,37.16
2019-04-03T08:20:13.309Z,36.66
2019-04-03T08:21:17.263Z,36.22
2019-04-03T08:22:21.288Z,35.80
2019-04-03T08:23:24.975Z,35.55
2019-04-03T08:24:29.046Z,35.62
2019-04-03T08:25:33.256Z,34.67
2019-04-03T08:26:37.012Z,34.19
2019-04-03T08:27:40.677Z,34.57
2019-04-03T08:28:44.556Z,33.69
2019-04-03T08:29:48.212Z,33.48
2019-04-03T08:30:51.796Z,34.45
2019-04-03T08:31:55.459Z,34.41
2019-04-03T08:32:59.318Z,33.77
2019-04-03T08:34:14.811Z,33.29
2019-04-03T08:35:19.380Z,34.00
2019-04-03T08:36:24.366Z,33.05
2019-04-03T08:37:29.856Z,32.15
2019-04-03T08:38:25.450Z,32.18
2019-04-03T08:39:29.911Z,31.65
2019-04-03T08:40:33.681Z,31.70
2019-04-03T08:41:37.887Z,31.28
2019-04-03T08:42:43.512Z,31.35
2019-04-03T08:43:47.238Z,30.83
2019-04-03T08:44:51.370Z,30.65
2019-04-03T08:45:55.149Z,30.28
2019-04-03T08:47:00.023Z,29.96
2019-04-03T08:48:05.968Z,29.93
2019-04-03T08:49:11.775Z,29.90
2019-04-03T08:50:15.534Z,31.11
2019-04-03T08:51:20.487Z,30.73
2019-04-03T08:52:24.476Z,30.46
2019-04-03T08:53:28.129Z,29.70
2019-04-03T08:54:31.972Z,29.12
2019-04-03T08:55:35.611Z,29.28
2019-04-03T08:56:39.359Z,29.85
2019-04-03T08:57:46.483Z,29.48
2019-04-03T08:58:50.461Z,29.51
2019-04-03T08:59:55.742Z,29.75
2019-04-03T09:00:59.431Z,29.79
2019-04-03T09:02:03.234Z,30.25
2019-04-03T09:03:07.282Z,30.68
2019-04-03T09:04:10.993Z,30.84
2019-04-03T09:05:18.990Z,31.17
2019-04-03T09:06:22.405Z,31.56
2019-04-03T09:07:26.342Z,32.05
2019-04-03T09:08:29.949Z,32.68
2019-04-03T09:09:35.296Z,32.54
2019-04-03T09:10:40.414Z,32.79
2019-04-03T09:11:44.147Z,32.89
2019-04-03T09:12:47.850Z,33.44
2019-04-03T09:13:54.359Z,34.08
2019-04-03T09:14:57.829Z,34.22
2019-04-03T09:16:01.619Z,34.38
2019-04-03T09:17:05.347Z,34.62
2019-04-03T09:18:09.132Z,34.17
2019-04-03T09:19:12.842Z,34.37
2019-04-03T09:20:16.607Z,34.84
2019-04-03T09:21:20.630Z,35.01
2019-04-03T09:22:24.534Z,35.32
2019-04-03T09:23:28.357Z,35.84
2019-04-03T09:24:32.011Z,35.80
2019-04-03T09:25:35.870Z,35.73
2019-04-03T09:26:39.998Z,36.08
2019-04-03T09:27:43.697Z,35.59
2019-04-03T09:28:47.366Z,34.70
2019-04-03T09:29:52.842Z,34.17
2019-04-03T09:30:56.684Z,34.28
2019-04-03T09:32:00.400Z,33.60
2019-04-03T09:33:05.785Z,33.83
2019-04-03T09:34:09.435Z,33.50
2019-04-03T09:35:13.596Z,32.79
2019-04-03T09:36:17.299Z,32.27
2019-04-03T09:37:20.907Z,32.06
2019-04-03T09:38:24.807Z,31.49
2019-04-03T09:39:28.602Z,31.51
2019-04-03T09:40:33.430Z,31.12
2019-04-03T09:41:37.009Z,29.91
2019-04-03T09:42:40.684Z,28.73
2019-04-03T09:43:44.325Z,28.61
2019-04-03T09:44:47.972Z,27.97
2019-04-03T09:45:51.665Z,27.48
2019-04-03T09:46:55.305Z,26.90
2019-04-03T09:47:59.227Z,27.08
2019-04-03T09:49:02.907Z,26.40
2019-04-03T09:50:08.603Z,26.22
2019-04-03T09:51:17.601Z,26.22
2019-04-03T09:52:22.568Z,27.62
2019-04-03T09:53:26.743Z,27.22
2019-04-03T09:54:30.589Z,26.06
2019-04-03T09:55:37.298Z,25.77
2019-04-03T09:56:54.867Z,25.82
2019-04-03T09:57:45.031Z,26.05
2019-04-03T09:58:48.725Z,25.26
2019-04-03T09:59:52.604Z,26.41
2019-04-03T10:00:56.297Z,25.95
2019-04-03T10:02:00.166Z,25.20
2019-04-03T10:03:05.816Z,24.28
2019-04-03T10:04:09.495Z,24.22
2019-04-03T10:05:14.567Z,24.54
2019-04-03T10:06:18.528Z,24.11
2019-04-03T10:07:22.169Z,24.91
2019-04-03T10:08:25.973Z,25.39
2019-04-03T10:09:29.857Z,25.61
2019-04-03T10:10:33.655Z,25.41
2019-04-03T10:11:39.180Z,25.10
2019-04-03T10:12:47.616Z,26.30
2019-04-03T10:13:48.127Z,25.77
2019-04-03T10:14:51.867Z,24.37
2019-04-03T10:15:55.529Z,25.39
2019-04-03T10:16:59.212Z,25.10
2019-04-03T10:18:03.090Z,25.34
2019-04-03T10:19:07.068Z,25.72
2019-04-03T10:20:11.105Z,24.76
2019-04-03T10:21:15.050Z,24.78
2019-04-03T10:22:18.716Z,25.57
2019-04-03T10:23:22.736Z,25.37
2019-04-03T10:24:26.669Z,26.52
2019-04-03T10:25:30.616Z,25.22
2019-04-03T10:26:34.324Z,25.43
2019-04-03T10:27:37.987Z,24.90
2019-04-03T10:28:42.893Z,25.20
2019-04-03T10:29:49.226Z,25.67
2019-04-03T10:30:53.479Z,25.64
2019-04-03T10:31:57.973Z,26.01
2019-04-03T10:33:01.986Z,25.67
2019-04-03T10:34:05.708Z,25.35
2019-04-03T10:35:09.759Z,24.91
2019-04-03T10:36:13.428Z,24.76
2019-04-03T10:37:17.098Z,25.75
2019-04-03T10:38:20.929Z,24.49
2019-04-03T10:39:24.590Z,24.12
2019-04-03T10:40:28.499Z,23.32
2019-04-03T10:41:32.219Z,23.80
2019-04-03T10:42:35.859Z,24.10
2019-04-03T10:43:39.628Z,24.19
2019-04-03T10:44:43.608Z,24.58
2019-04-03T10:45:47.264Z,23.47
2019-04-03T10:46:51.263Z,24.00
2019-04-03T10:47:56.324Z,23.36
2019-04-03T10:49:01.367Z,23.24
2019-04-03T10:50:07.292Z,22.88
2019-04-03T10:51:10.921Z,22.60
2019-04-03T10:52:15.159Z,22.86
2019-04-03T10:53:19.990Z,22.40
2019-04-03T10:54:25.077Z,22.24
2019-04-03T10:55:29.624Z,21.79
2019-04-03T10:56:33.267Z,22.69
2019-04-03T10:57:37.199Z,21.59
2019-04-03T10:58:43.147Z,21.37
2019-04-03T10:59:47.940Z,21.40
2019-04-03T11:00:51.738Z,22.33
2019-04-03T11:01:55.416Z,21.64
2019-04-03T11:02:59.145Z,21.74
2019-04-03T11:04:02.806Z,21.94
2019-04-03T11:05:09.962Z,20.93
2019-04-03T11:06:13.659Z,22.03
2019-04-03T11:07:17.723Z,21.60
2019-04-03T11:08:21.499Z,22.39
2019-04-03T11:09:25.012Z,21.96
2019-04-03T11:10:28.649Z,22.13
2019-04-03T11:11:32.344Z,22.14
2019-04-03T11:12:35.952Z,21.82
2019-04-03T11:13:40.389Z,21.14
2019-04-03T11:14:44.020Z,21.34
2019-04-03T11:15:47.880Z,20.96
2019-04-03T11:16:51.555Z,20.61
2019-04-03T11:17:55.176Z,20.00
2019-04-03T11:19:04.061Z,19.31
2019-04-03T11:20:09.684Z,19.22
2019-04-03T11:21:14.368Z,19.34
2019-04-03T11:22:18.008Z,18.92
2019-04-03T11:23:35.763Z,19.30
2019-04-03T11:24:27.068Z,18.69
2019-04-03T11:25:30.737Z,19.08
2019-04-03T11:26:34.466Z,19.74
2019-04-03T11:27:44.097Z,18.44
2019-04-03T11:28:43.711Z,19.23
2019-04-03T11:29:47.367Z,18.70
2019-04-03T11:30:52.866Z,19.05
2019-04-03T11:31:56.555Z,19.39
2019-04-03T11:33:00.405Z,19.05
2019-04-03T11:34:04.072Z,18.68
2019-04-03T11:35:08.369Z,18.39
2019-04-03T11:36:12.227Z,17.78
2019-04-03T11:37:16.047Z,17.77
2019-04-03T11:38:27.144Z,18.18
2019-04-03T11:39:25.303Z,17.46
2019-04-03T11:40:29.074Z,17.39
2019-04-03T11:41:32.653Z,17.23
2019-04-03T11:42:36.497Z,17.28
2019-04-03T11:43:40.228Z,17.53
2019-04-03T11:44:43.947Z,17.18
2019-04-03T11:45:47.688Z,17.34
2019-04-03T11:46:51.333Z,16.86
2019-04-03T11:47:54.978Z,17.04
2019-04-03T11:48:58.659Z,16.83
2019-04-03T11:50:02.355Z,17.14
2019-04-03T11:51:06.007Z,16.74
2019-04-03T11:52:09.636Z,16.95
2019-04-03T11:53:13.274Z,17.33
2019-04-03T11:54:16.961Z,16.73
2019-04-03T11:55:21.070Z,16.57
2019-04-03T11:56:25.074Z,16.90
2019-04-03T11:57:28.800Z,17.27
2019-04-03T11:58:32.464Z,16.91
2019-04-03T11:59:36.146Z,17.07
2019-04-03T12:00:41.417Z,17.72
2019-04-03T12:01:45.305Z,17.24
2019-04-03T12:02:48.900Z,17.44
2019-04-03T12:03:52.726Z,17.48
2019-04-03T12:04:56.597Z,17.66
2019-04-03T12:06:00.265Z,16.73
2019-04-03T12:07:06.365Z,16.94
2019-04-03T12:08:12.570Z,16.97
2019-04-03T12:09:16.674Z,16.59
2019-04-03T12:10:20.365Z,17.22
2019-04-03T12:11:24.018Z,17.35
2019-04-03T12:12:27.666Z,17.85
2019-04-03T12:13:31.327Z,18.71
2019-04-03T12:14:34.846Z,19.03
2019-04-03T12:15:38.894Z,20.30
2019-04-03T12:16:42.768Z,21.17
2019-04-03T12:17:46.464Z,22.41
2019-04-03T12:18:50.116Z,23.60
2019-04-03T12:19:53.752Z,24.98
2019-04-03T12:20:57.671Z,25.77
2019-04-03T12:22:01.292Z,26.04
2019-04-03T12:23:04.948Z,26.77
2019-04-03T12:24:13.898Z,27.47
2019-04-03T12:25:17.571Z,27.99
2019-04-03T12:26:23.158Z,28.25
2019-04-03T12:27:26.871Z,28.29
2019-04-03T12:28:30.624Z,28.80
2019-04-03T12:29:34.247Z,29.02
2019-04-03T12:30:38.277Z,30.16
2019-04-03T12:31:42.010Z,30.25
2019-04-03T12:32:48.939Z,30.79
2019-04-03T12:33:54.919Z,30.52
2019-04-03T12:34:56.415Z,30.84
2019-04-03T12:36:00.073Z,31.99
2019-04-03T12:37:03.848Z,30.85
2019-04-03T12:38:08.012Z,31.36
2019-04-03T12:39:13.702Z,31.16
2019-04-03T12:40:17.550Z,31.47
2019-04-03T12:41:21.597Z,31.94
2019-04-03T12:42:25.507Z,32.50
2019-04-03T12:43:29.681Z,32.14
2019-04-03T12:44:33.748Z,32.60
2019-04-03T12:45:37.377Z,32.67
2019-04-03T12:46:41.785Z,32.38
2019-04-03T12:47:45.532Z,31.92
2019-04-03T12:48:50.998Z,32.02
2019-04-03T12:49:55.144Z,32.46
2019-04-03T12:51:00.163Z,32.55
2019-04-03T12:52:04.732Z,33.30
2019-04-03T12:53:09.276Z,33.29
2019-04-03T12:54:13.978Z,33.82
2019-04-03T12:55:17.804Z,33.71
2019-04-03T12:56:24.202Z,33.58
2019-04-03T12:57:27.343Z,34.04
2019-04-03T12:58:31.111Z,35.12
2019-04-03T12:59:34.937Z,35.33
2019-04-03T13:00:39.659Z,35.50
2019-04-03T13:01:43.343Z,35.59
2019-04-03T13:02:46.979Z,35.93
2019-04-03T13:03:50.730Z,36.07
2019-04-03T13:04:54.851Z,36.35
2019-04-03T13:05:58.632Z,36.44
2019-04-03T13:07:04.950Z,35.91
2019-04-03T13:08:07.745Z,35.70
2019-04-03T13:09:14.108Z,35.57
2019-04-03T13:10:20.197Z,36.16
2019-04-03T13:11:24.457Z,36.30
2019-04-03T13:12:31.289Z,35.78
2019-04-03T13:13:37.987Z,35.69
2019-04-03T13:14:48.753Z,35.02
2019-04-03T13:15:51.637Z,35.03
2019-04-03T13:16:55.208Z,34.46
2019-04-03T13:17:58.846Z,34.48
2019-04-03T13:19:02.501Z,34.53
2019-04-03T13:20:07.365Z,35.08
2019-04-03T13:21:11.062Z,34.88
2019-04-03T13:22:17.648Z,35.25
2019-04-03T13:23:20.204Z,35.07
2019-04-03T13:24:23.826Z,35.13
2019-04-03T13:25:27.471Z,35.52
2019-04-03T13:26:31.155Z,35.52
2019-04-03T13:27:35.015Z,35.64
2019-04-03T13:28:40.399Z,36.24
2019-04-03T13:29:44.014Z,36.08
2019-04-03T13:30:47.682Z,36.11
2019-04-03T13:31:51.701Z,35.77
2019-04-03T13:32:59.889Z,36.03
2019-04-03T13:34:01.087Z,36.39
2019-04-03T13:35:06.866Z,36.15
2019-04-03T13:36:10.634Z,36.58
2019-04-03T13:37:14.385Z,36.93
2019-04-03T13:38:18.419Z,36.92
2019-04-03T13:39:22.204Z,37.35
2019-04-03T13:40:25.866Z,37.68
2019-04-03T13:41:29.518Z,38.30
2019-04-03T13:42:33.207Z,38.83
2019-04-03T13:43:36.936Z,38.71
2019-04-03T13:44:40.748Z,39.08
2019-04-03T13:45:44.750Z,39.34
2019-04-03T13:46:48.883Z,40.24